Time;durP1;ratioP1;P1;durP2;ratioP2;P2;SDS_P1;SDS_P2;PMS_P1;PMS_P2;Temp;Humidity;BMP_temperature;BMP_pressure;BME280_temperature;BME280_humidity;BME280_pressure;Samples;Min_cycle;Max_cycle;Signal;HPM_P1;HPM_P2
2023/08/16 00:00:38;;;;;;;2.33;1.20;;;;;;;15.88;100.00;100808.97;5010616;28;20033;-72
2023/08/16 00:03:25;;;;;;;3.50;0.90;;;;;;;15.84;100.00;100812.41;4992504;28;20403;-72
2023/08/16 00:06:11;;;;;;;2.67;1.27;;;;;;;15.82;100.00;100813.88;5020629;28;20458;-72
2023/08/16 00:08:59;;;;;;;3.08;1.30;;;;;;;15.82;100.00;100808.28;5036475;28;20033;-72
2023/08/16 00:11:45;;;;;;;2.40;1.17;;;;;;;15.80;100.00;100810.63;5012176;28;20072;-72
2023/08/16 00:14:31;;;;;;;2.70;1.20;;;;;;;15.79;100.00;100803.34;5036457;28;20045;-72
2023/08/16 00:17:17;;;;;;;2.92;1.17;;;;;;;15.79;100.00;100795.75;5038285;28;20414;-72
2023/08/16 00:20:06;;;;;;;4.72;1.33;;;;;;;15.79;100.00;100790.16;5021940;28;20033;-72
2023/08/16 00:22:52;;;;;;;2.60;1.30;;;;;;;15.70;100.00;100786.50;5024269;28;20096;-72
2023/08/16 00:25:39;;;;;;;2.90;1.20;;;;;;;15.68;100.00;100788.78;5006366;28;20041;-73
2023/08/16 00:28:24;;;;;;;2.55;1.25;;;;;;;15.69;100.00;100790.47;5023754;28;20030;-72
2023/08/16 00:31:11;;;;;;;1.77;1.00;;;;;;;15.70;100.00;100794.91;5026464;28;20039;-72
2023/08/16 00:33:56;;;;;;;2.55;1.20;;;;;;;15.66;100.00;100791.06;5021447;28;20445;-72
2023/08/16 00:36:42;;;;;;;3.10;1.23;;;;;;;15.67;100.00;100797.50;5037043;28;20513;-72
2023/08/16 00:39:28;;;;;;;2.53;1.00;;;;;;;15.64;100.00;100790.56;5013002;28;20075;-72
2023/08/16 00:42:14;;;;;;;3.40;1.13;;;;;;;15.60;100.00;100793.19;5027876;28;20045;-72
2023/08/16 00:44:59;;;;;;;3.08;1.00;;;;;;;15.57;100.00;100787.38;5011160;28;20062;-72
2023/08/16 00:47:45;;;;;;;2.30;1.00;;;;;;;15.54;100.00;100791.66;5003365;28;20064;-72
2023/08/16 00:50:31;;;;;;;2.83;1.13;;;;;;;15.52;100.00;100793.97;5012465;28;20033;-72
2023/08/16 00:53:17;;;;;;;3.75;1.08;;;;;;;15.46;100.00;100784.06;5007245;28;20034;-72
2023/08/16 00:56:05;;;;;;;2.80;1.00;;;;;;;15.38;100.00;100782.84;5032517;28;20043;-72
2023/08/16 00:58:51;;;;;;;2.45;1.33;;;;;;;15.34;100.00;100781.00;5000812;28;20026;-73
2023/08/16 01:01:36;;;;;;;2.13;0.95;;;;;;;15.28;100.00;100774.72;5009554;28;20029;-72
2023/08/16 01:04:22;;;;;;;1.92;1.00;;;;;;;15.23;100.00;100774.84;5022884;28;20099;-73
2023/08/16 01:07:08;;;;;;;4.13;1.30;;;;;;;15.16;100.00;100774.47;5017583;28;20042;-72
2023/08/16 01:09:54;;;;;;;3.22;1.20;;;;;;;15.22;100.00;100775.16;5007087;28;20033;-73
2023/08/16 01:12:42;;;;;;;3.22;1.05;;;;;;;15.17;100.00;100773.31;5030572;28;20060;-73
2023/08/16 01:15:30;;;;;;;2.03;1.15;;;;;;;15.16;100.00;100777.28;5036503;28;20040;-73
2023/08/16 01:18:16;;;;;;;3.88;1.25;;;;;;;15.15;100.00;100775.59;5021138;28;20117;-73
2023/08/16 01:21:03;;;;;;;2.60;1.25;;;;;;;15.08;100.00;100773.25;5023304;28;20055;-72
2023/08/16 01:24:13;;;;;;;1.88;1.17;;;;;;;15.05;100.00;100775.88;5003701;28;20060;-73
2023/08/16 01:26:58;;;;;;;2.83;1.13;;;;;;;15.05;100.00;100767.47;5042220;28;20040;-72
2023/08/16 01:29:46;;;;;;;4.10;1.25;;;;;;;14.97;100.00;100769.88;5011838;28;20083;-73
2023/08/16 01:32:32;;;;;;;3.17;1.35;;;;;;;15.00;100.00;100771.22;5022666;28;20034;-72
2023/08/16 01:35:18;;;;;;;3.13;1.40;;;;;;;15.00;100.00;100773.19;5004546;28;20077;-72
2023/08/16 01:38:04;;;;;;;3.30;1.20;;;;;;;15.00;100.00;100774.03;5023197;28;20045;-72
2023/08/16 01:41:02;;;;;;;3.75;1.38;;;;;;;14.93;100.00;100774.47;5011078;28;20059;-73
2023/08/16 01:43:48;;;;;;;2.60;1.25;;;;;;;14.96;100.00;100778.59;5022550;28;20034;-72
2023/08/16 01:46:34;;;;;;;2.53;1.30;;;;;;;14.92;100.00;100778.41;5008700;28;20064;-72
2023/08/16 01:49:20;;;;;;;4.18;1.30;;;;;;;14.92;100.00;100777.56;5003067;28;20038;-72
2023/08/16 01:52:06;;;;;;;4.75;1.30;;;;;;;14.90;100.00;100782.66;5015364;28;20037;-72
2023/08/16 01:54:52;;;;;;;2.38;1.00;;;;;;;14.90;100.00;100788.25;5017837;28;20034;-72
2023/08/16 01:57:38;;;;;;;2.00;1.10;;;;;;;14.85;100.00;100783.63;5028324;28;20056;-72
2023/08/16 02:00:23;;;;;;;4.03;1.20;;;;;;;14.82;100.00;100784.25;5012665;28;20030;-72
2023/08/16 02:03:09;;;;;;;3.10;1.30;;;;;;;14.80;100.00;100786.53;5022617;28;20113;-72
2023/08/16 02:05:55;;;;;;;3.65;1.27;;;;;;;14.81;100.00;100785.38;5022900;28;20037;-73
2023/08/16 02:08:41;;;;;;;3.13;1.42;;;;;;;14.75;100.00;100789.44;5016838;28;20414;-72
2023/08/16 02:11:26;;;;;;;4.40;1.48;;;;;;;14.73;100.00;100789.75;5020458;28;20444;-72
2023/08/16 02:14:12;;;;;;;3.50;1.35;;;;;;;14.71;100.00;100788.44;5034049;28;20033;-72
2023/08/16 02:16:58;;;;;;;3.05;1.33;;;;;;;14.68;100.00;100789.03;5035277;28;20049;-73
2023/08/16 02:19:44;;;;;;;2.88;1.40;;;;;;;14.65;100.00;100796.06;5030792;28;20039;-72
2023/08/16 02:22:29;;;;;;;3.90;1.40;;;;;;;14.66;100.00;100791.34;5025859;28;20061;-72
2023/08/16 02:25:15;;;;;;;4.55;1.38;;;;;;;14.68;100.00;100792.69;5039525;28;20060;-72
2023/08/16 02:28:01;;;;;;;2.08;1.15;;;;;;;14.67;100.00;100798.56;5001306;28;20167;-73
2023/08/16 02:30:47;;;;;;;2.90;1.42;;;;;;;14.66;100.00;100791.34;5039390;28;20321;-72
2023/08/16 02:33:33;;;;;;;1.90;1.35;;;;;;;14.64;100.00;100793.63;5038915;28;20064;-72
2023/08/16 02:36:19;;;;;;;4.63;1.40;;;;;;;14.64;100.00;100786.06;5026397;28;20531;-73
2023/08/16 02:39:06;;;;;;;3.28;1.20;;;;;;;14.64;100.00;100790.81;5025529;28;20542;-72
2023/08/16 02:41:53;;;;;;;4.82;1.33;;;;;;;14.65;100.00;100789.66;5011788;28;20030;-73
2023/08/16 02:44:39;;;;;;;3.42;1.35;;;;;;;14.63;100.00;100783.59;5016946;28;20056;-72
2023/08/16 02:47:26;;;;;;;2.63;1.20;;;;;;;14.59;100.00;100780.56;5015477;28;20045;-72
2023/08/16 02:50:12;;;;;;;2.28;1.38;;;;;;;14.62;100.00;100790.31;5025770;28;20092;-72
2023/08/16 02:52:58;;;;;;;3.50;1.17;;;;;;;14.57;100.00;100785.69;5020739;28;20390;-72
2023/08/16 02:55:43;;;;;;;4.88;1.42;;;;;;;14.50;100.00;100786.06;5031804;28;20503;-72
2023/08/16 02:58:29;;;;;;;2.78;1.40;;;;;;;14.46;100.00;100789.81;5026111;28;20025;-72
2023/08/16 03:01:15;;;;;;;4.13;1.33;;;;;;;14.48;100.00;100791.13;5039386;28;20079;-72
2023/08/16 03:04:01;;;;;;;3.88;1.38;;;;;;;14.44;100.00;100790.09;5005706;28;20101;-73
2023/08/16 03:06:46;;;;;;;3.30;1.30;;;;;;;14.39;100.00;100790.22;5054647;28;20033;-72
2023/08/16 03:09:33;;;;;;;2.47;1.33;;;;;;;14.39;100.00;100786.59;5037037;28;20053;-72
2023/08/16 03:12:18;;;;;;;3.20;1.33;;;;;;;14.38;100.00;100794.16;5043133;28;20037;-73
2023/08/16 03:15:05;;;;;;;2.55;1.38;;;;;;;14.37;100.00;100783.28;5026204;28;20040;-72
2023/08/16 03:17:51;;;;;;;2.67;1.40;;;;;;;14.36;100.00;100788.03;5011086;28;20482;-73
2023/08/16 03:20:36;;;;;;;4.10;1.60;;;;;;;14.33;100.00;100779.47;5031818;28;20033;-72
2023/08/16 03:23:22;;;;;;;2.85;1.42;;;;;;;14.27;100.00;100778.75;5015132;28;20033;-72
2023/08/16 03:26:08;;;;;;;2.80;1.50;;;;;;;14.26;100.00;100771.50;5037064;28;20069;-72
2023/08/16 03:28:54;;;;;;;3.15;1.60;;;;;;;14.25;100.00;100778.22;5038872;28;20034;-72
2023/08/16 03:31:39;;;;;;;2.20;1.42;;;;;;;14.23;100.00;100777.72;5025309;28;20114;-72
2023/08/16 03:34:25;;;;;;;3.90;1.23;;;;;;;14.23;100.00;100777.72;5013050;28;20466;-73
2023/08/16 03:37:11;;;;;;;2.50;1.40;;;;;;;14.22;100.00;100773.28;5024513;28;20030;-72
2023/08/16 03:39:57;;;;;;;3.40;1.40;;;;;;;14.22;100.00;100768.50;5025919;28;20500;-72
2023/08/16 03:42:43;;;;;;;2.47;1.35;;;;;;;14.18;100.00;100775.03;5014495;28;20041;-73
2023/08/16 03:45:28;;;;;;;3.20;1.30;;;;;;;14.12;100.00;100776.28;5037412;28;20033;-72
2023/08/16 03:48:14;;;;;;;2.42;1.30;;;;;;;14.11;100.00;100769.88;5024370;28;20026;-72
2023/08/16 03:51:00;;;;;;;3.25;1.08;;;;;;;14.11;100.00;100771.84;5036945;28;20092;-73
2023/08/16 03:53:46;;;;;;;3.20;1.30;;;;;;;14.08;100.00;100770.50;5012624;28;20029;-73
2023/08/16 03:56:31;;;;;;;3.28;1.10;;;;;;;14.04;100.00;100761.91;5034065;28;20033;-73
2023/08/16 03:59:17;;;;;;;2.58;1.20;;;;;;;14.00;100.00;100768.44;5037940;28;20036;-72
2023/08/16 04:02:03;;;;;;;2.63;1.55;;;;;;;13.98;100.00;100765.94;5008184;28;20042;-72
2023/08/16 04:04:53;;;;;;;1.83;1.45;;;;;;;13.97;100.00;100761.50;5022676;28;20041;-73
2023/08/16 04:07:39;;;;;;;2.45;1.33;;;;;;;13.98;100.00;100765.94;5023865;28;20077;-72
2023/08/16 04:10:24;;;;;;;2.47;1.30;;;;;;;13.93;100.00;100773.59;5014029;28;20128;-72
2023/08/16 04:13:10;;;;;;;2.13;1.40;;;;;;;13.89;100.00;100764.19;5048962;28;20033;-72
2023/08/16 04:15:56;;;;;;;2.50;1.27;;;;;;;13.88;100.00;100771.75;5028407;28;20096;-73
2023/08/16 04:18:42;;;;;;;2.85;1.60;;;;;;;13.83;100.00;100764.28;5036339;28;20110;-73
2023/08/16 04:21:28;;;;;;;1.77;1.30;;;;;;;13.84;100.00;100773.50;5011281;28;20135;-73
2023/08/16 04:24:13;;;;;;;4.00;1.48;;;;;;;13.80;100.00;100764.09;5024027;28;20029;-73
2023/08/16 04:26:59;;;;;;;1.70;1.40;;;;;;;13.81;100.00;100776.91;5023509;28;20064;-72
2023/08/16 04:29:45;;;;;;;3.45;1.50;;;;;;;13.78;100.00;100778.34;5014294;28;20040;-72
2023/08/16 04:32:31;;;;;;;2.67;1.63;;;;;;;13.77;100.00;100781.47;5037119;28;20033;-72
2023/08/16 04:35:17;;;;;;;2.40;1.23;;;;;;;13.73;100.00;100774.81;5023707;28;20032;-72
2023/08/16 04:38:02;;;;;;;2.67;1.40;;;;;;;13.72;100.00;100773.19;5016758;28;20030;-72
2023/08/16 04:40:51;;;;;;;3.45;1.55;;;;;;;13.71;100.00;100777.13;5010898;28;20346;-72
2023/08/16 04:43:37;;;;;;;2.45;1.55;;;;;;;13.68;100.00;100788.88;5036418;28;20398;-72
2023/08/16 04:46:23;;;;;;;1.83;1.30;;;;;;;13.68;100.00;100783.28;5020417;28;20467;-72
2023/08/16 04:49:09;;;;;;;2.05;1.38;;;;;;;13.67;100.00;100790.03;4993322;28;20034;-73
2023/08/16 04:51:55;;;;;;;3.20;1.50;;;;;;;13.68;100.00;100794.44;5022051;28;20045;-72
2023/08/16 04:54:41;;;;;;;5.00;1.67;;;;;;;13.68;100.00;100800.03;5023514;28;20034;-73
2023/08/16 04:57:27;;;;;;;2.63;1.77;;;;;;;13.65;100.00;100795.94;5003978;28;20460;-72
2023/08/16 05:00:13;;;;;;;4.70;1.80;;;;;;;13.63;100.00;100796.22;5022828;28;20044;-73
2023/08/16 05:02:58;;;;;;;3.92;1.60;;;;;;;13.63;100.00;100773.91;5035240;28;20091;-73
2023/08/16 05:05:44;;;;;;;3.40;2.08;;;;;;;13.62;100.00;100783.41;5023613;28;20040;-72
2023/08/16 05:08:30;;;;;;;2.70;1.65;;;;;;;13.63;100.00;100775.88;5012652;28;20080;-72
2023/08/16 05:11:16;;;;;;;3.25;1.50;;;;;;;13.61;100.00;100778.94;5008958;28;20029;-72
2023/08/16 05:14:02;;;;;;;2.72;1.48;;;;;;;13.64;100.00;100767.16;5022915;28;20041;-72
2023/08/16 05:16:48;;;;;;;2.75;1.80;;;;;;;13.65;100.00;100773.59;5012637;28;20060;-72
2023/08/16 05:19:34;;;;;;;4.15;1.95;;;;;;;13.64;100.00;100764.38;5021448;28;20026;-72
2023/08/16 05:22:22;;;;;;;4.05;2.00;;;;;;;13.69;100.00;100771.84;5004601;28;20120;-73
2023/08/16 05:25:08;;;;;;;1.90;1.63;;;;;;;13.69;100.00;100771.84;5036803;28;20037;-72
2023/08/16 05:27:58;;;;;;;3.92;1.88;;;;;;;13.70;100.00;100778.22;5023321;28;20029;-72
2023/08/16 05:30:44;;;;;;;3.85;1.70;;;;;;;13.68;100.00;100774.91;5007735;28;20057;-72
2023/08/16 05:33:29;;;;;;;4.82;1.40;;;;;;;13.68;100.00;100772.13;5003242;28;20026;-73
2023/08/16 05:36:16;;;;;;;3.20;1.70;;;;;;;13.69;100.00;100773.81;5020738;28;20096;-72
2023/08/16 05:39:03;;;;;;;5.75;1.60;;;;;;;13.70;100.00;100778.22;5022305;28;20037;-72
2023/08/16 05:41:48;;;;;;;2.20;1.40;;;;;;;13.71;100.00;100788.28;5022675;28;20561;-72
2023/08/16 05:44:34;;;;;;;2.75;1.65;;;;;;;13.73;100.00;100786.00;5023093;28;20030;-72
2023/08/16 05:47:20;;;;;;;3.58;1.70;;;;;;;13.75;100.00;100783.72;4997765;28;20040;-72
2023/08/16 05:50:06;;;;;;;3.97;1.50;;;;;;;13.78;100.00;100788.69;5010627;28;20155;-72
2023/08/16 05:52:52;;;;;;;3.13;1.60;;;;;;;13.78;100.00;100794.28;5025866;28;20042;-72
2023/08/16 05:55:37;;;;;;;3.53;1.77;;;;;;;13.85;100.00;100783.53;5032822;28;20041;-72
2023/08/16 05:58:23;;;;;;;2.28;1.90;;;;;;;13.92;100.00;100783.94;5026880;28;20457;-72
2023/08/16 06:01:09;;;;;;;5.10;1.80;;;;;;;13.99;100.00;100791.91;5022640;28;20030;-73
2023/08/16 06:03:55;;;;;;;2.47;1.83;;;;;;;13.99;100.00;100789.94;5039249;28;20041;-72
2023/08/16 06:06:40;;;;;;;3.72;1.90;;;;;;;14.08;100.00;100788.06;5027935;28;20033;-72
2023/08/16 06:09:26;;;;;;;2.88;1.88;;;;;;;14.19;100.00;100799.03;5009382;28;20037;-73
2023/08/16 06:12:12;;;;;;;3.75;2.55;;;;;;;14.27;100.00;100795.53;5044086;28;20511;-72
2023/08/16 06:14:58;;;;;;;5.03;3.13;;;;;;;14.35;100.00;100803.16;5001477;28;20044;-72
2023/08/16 06:17:44;;;;;;;6.18;3.05;;;;;;;14.41;100.00;100801.09;5025963;28;20064;-73
2023/08/16 06:20:30;;;;;;;5.85;3.40;;;;;;;14.47;100.00;100800.66;5025364;28;20036;-72
2023/08/16 06:23:15;;;;;;;3.75;2.53;;;;;;;14.58;100.00;100794.88;5025261;28;20029;-72
2023/08/16 06:26:01;;;;;;;7.60;3.78;;;;;;;14.64;100.00;100802.81;5038341;28;20026;-73
2023/08/16 06:28:48;;;;;;;5.75;4.05;;;;;;;14.73;100.00;100802.91;5026201;28;20041;-72
2023/08/16 06:31:34;;;;;;;5.97;3.75;;;;;;;14.82;100.00;100798.25;5039394;28;20056;-72
2023/08/16 06:34:20;;;;;;;7.32;3.05;;;;;;;14.91;100.00;100801.91;5025893;28;20030;-72
2023/08/16 06:37:05;;;;;;;9.75;5.05;;;;;;;15.02;100.00;100796.09;5039408;28;20033;-72
2023/08/16 06:39:51;;;;;;;6.07;3.83;;;;;;;15.05;100.00;100789.88;5026321;28;20029;-72
2023/08/16 06:42:37;;;;;;;9.75;4.35;;;;;;;15.15;100.00;100792.38;5014972;28;20041;-72
2023/08/16 06:45:23;;;;;;;7.03;4.32;;;;;;;15.22;100.00;100783.56;5021950;28;20437;-72
2023/08/16 06:48:09;;;;;;;8.57;3.80;;;;;;;15.31;100.00;100785.25;5000343;28;20034;-72
2023/08/16 06:50:55;;;;;;;7.63;3.67;;;;;;;15.39;100.00;100789.25;5025870;28;20059;-72
2023/08/16 06:53:43;;;;;;;5.20;3.55;;;;;;;15.54;100.00;100788.03;5025823;28;20065;-72
2023/08/16 06:56:29;;;;;;;5.70;2.70;;;;;;;15.69;100.00;100787.66;5048125;28;20034;-72
2023/08/16 06:59:15;;;;;;;4.93;2.85;;;;;;;15.80;100.00;100791.00;5039703;28;20065;-72
2023/08/16 07:02:01;;;;;;;7.05;2.60;;;;;;;15.97;100.00;100779.06;5013636;28;20093;-73
2023/08/16 07:04:48;;;;;;;5.22;3.28;;;;;;;16.08;100.00;100783.22;5010736;28;20092;-73
2023/08/16 07:07:33;;;;;;;5.18;3.00;;;;;;;16.21;100.00;100785.03;5025660;28;20041;-72
2023/08/16 07:10:19;;;;;;;7.63;2.70;;;;;;;16.37;100.00;100785.41;5029555;28;20113;-72
2023/08/16 07:13:05;;;;;;;6.10;3.10;;;;;;;16.49;100.00;100782.81;5021136;28;20034;-72
2023/08/16 07:15:51;;;;;;;6.70;3.03;;;;;;;16.66;100.00;100787.63;5018768;28;20049;-73
2023/08/16 07:18:37;;;;;;;6.45;3.05;;;;;;;16.88;100.00;100786.69;5008526;28;20028;-73
2023/08/16 07:21:22;;;;;;;6.40;3.33;;;;;;;17.07;100.00;100782.69;5011020;28;20030;-72
2023/08/16 07:24:08;;;;;;;6.95;2.97;;;;;;;17.29;100.00;100785.31;5037343;28;20064;-72
2023/08/16 07:26:54;;;;;;;5.95;3.20;;;;;;;17.53;100.00;100784.75;5018410;28;20044;-72
2023/08/16 07:29:40;;;;;;;6.13;2.95;;;;;;;17.75;100.00;100778.09;5038950;28;20100;-73
2023/08/16 07:32:25;;;;;;;6.65;2.88;;;;;;;18.00;100.00;100775.53;5052165;28;20130;-73
2023/08/16 07:35:11;;;;;;;6.78;2.92;;;;;;;18.22;100.00;100771.59;5006999;28;20057;-72
2023/08/16 07:37:57;;;;;;;5.35;2.63;;;;;;;18.41;100.00;100774.78;5021216;28;20118;-73
2023/08/16 07:40:47;;;;;;;4.85;2.13;;;;;;;18.66;100.00;100775.78;5021902;28;20042;-73
2023/08/16 07:43:33;;;;;;;5.00;2.47;;;;;;;18.88;100.00;100777.44;5026279;28;20061;-73
2023/08/16 07:46:19;;;;;;;5.28;2.35;;;;;;;19.10;100.00;100773.47;5037159;28;20033;-72
2023/08/16 07:49:05;;;;;;;6.78;2.42;;;;;;;19.29;100.00;100767.31;5024127;28;20115;-73
2023/08/16 07:51:50;;;;;;;4.15;1.60;;;;;;;19.52;100.00;100766.91;5009139;28;20030;-73
2023/08/16 07:54:36;;;;;;;5.65;1.83;;;;;;;19.74;100.00;100774.97;5009040;28;20030;-72
2023/08/16 07:57:22;;;;;;;5.97;1.90;;;;;;;19.95;100.00;100772.06;5004437;28;20033;-73
2023/08/16 08:00:12;;;;;;;6.72;2.63;;;;;;;20.06;100.00;100758.34;5023356;28;20037;-73
2023/08/16 08:02:58;;;;;;;6.03;2.00;;;;;;;20.26;100.00;100771.47;5010910;28;20037;-72
2023/08/16 08:05:44;;;;;;;4.85;1.98;;;;;;;20.42;100.00;100765.09;5010895;28;20129;-73
2023/08/16 08:08:31;;;;;;;4.90;1.67;;;;;;;20.63;100.00;100771.44;5015387;28;20050;-73
2023/08/16 08:11:16;;;;;;;4.88;1.60;;;;;;;20.83;100.00;100763.97;5019568;28;20116;-73
2023/08/16 08:14:03;;;;;;;4.43;1.67;;;;;;;20.98;100.00;100768.06;5036064;28;20037;-73
2023/08/16 08:16:49;;;;;;;4.50;1.80;;;;;;;21.07;100.00;100763.09;5013281;28;20100;-73
2023/08/16 08:19:35;;;;;;;4.15;1.70;;;;;;;21.24;100.00;100761.13;5017389;28;20036;-73
2023/08/16 08:22:20;;;;;;;3.75;1.80;;;;;;;21.41;100.00;100758.00;5036519;28;20091;-73
2023/08/16 08:25:07;;;;;;;5.60;1.13;;;;;;;21.62;100.00;100767.06;5023684;28;20033;-73
2023/08/16 08:27:53;;;;;;;4.78;1.20;;;;;;;21.70;100.00;100767.25;5024115;28;20045;-73
2023/08/16 08:30:41;;;;;;;4.82;1.30;;;;;;;21.90;100.00;100770.97;5023580;28;20103;-73
2023/08/16 08:33:27;;;;;;;3.22;1.20;;;;;;;22.00;100.00;100765.59;5036687;28;20029;-73
2023/08/16 08:36:13;;;;;;;4.05;1.40;;;;;;;22.12;100.00;100766.69;5005831;28;20033;-73
2023/08/16 08:38:59;;;;;;;3.05;1.25;;;;;;;22.24;100.00;100764.63;5036643;28;20032;-73
2023/08/16 08:41:48;;;;;;;3.92;1.40;;;;;;;22.23;100.00;100771.47;5023694;28;20030;-73
2023/08/16 08:44:34;;;;;;;6.30;1.55;;;;;;;22.34;100.00;100768.88;5022084;28;20065;-73
2023/08/16 08:47:19;;;;;;;4.07;1.48;;;;;;;22.52;100.00;100757.97;5023767;28;20039;-73
2023/08/16 08:50:06;;;;;;;3.20;1.10;;;;;;;22.60;100.00;100759.78;5022680;28;20037;-73
2023/08/16 08:52:52;;;;;;;4.88;1.30;;;;;;;22.70;100.00;100762.00;5003980;28;20026;-73
2023/08/16 08:55:39;;;;;;;3.85;1.08;;;;;;;22.86;100.00;100756.31;5036400;28;20060;-73
2023/08/16 08:58:25;;;;;;;2.35;0.95;;;;;;;23.04;100.00;100756.72;5039689;28;20060;-73
2023/08/16 09:01:11;;;;;;;3.25;1.00;;;;;;;23.21;100.00;100758.28;5017882;28;20033;-73
2023/08/16 09:03:57;;;;;;;2.10;1.17;;;;;;;23.22;100.00;100753.44;5003874;28;20049;-73
2023/08/16 09:06:42;;;;;;;4.13;1.42;;;;;;;23.35;100.00;100754.91;5010516;28;20041;-73
2023/08/16 09:09:29;;;;;;;1.70;0.90;;;;;;;23.44;100.00;100752.66;5021055;28;20033;-73
2023/08/16 09:12:15;;;;;;;4.35;1.45;;;;;;;23.62;100.00;100741.63;5027999;28;20037;-73
2023/08/16 09:15:00;;;;;;;2.72;1.10;;;;;;;23.61;100.00;100749.31;5011843;28;20410;-73
2023/08/16 09:17:49;;;;;;;5.38;1.38;;;;;;;23.70;100.00;100743.38;5020794;28;20048;-73
2023/08/16 09:20:35;;;;;;;4.70;1.00;;;;;;;23.82;100.00;100745.25;5009833;28;20108;-73
2023/08/16 09:23:21;;;;;;;2.50;0.80;;;;;;;23.92;100.00;100743.81;5003609;28;20123;-73
2023/08/16 09:26:15;;;;;;;3.10;1.00;;;;;;;23.99;100.00;100750.41;5022810;28;20072;-73
2023/08/16 09:29:02;;;;;;;3.10;1.10;;;;;;;24.03;100.00;100742.78;5020038;28;20042;-73
2023/08/16 09:31:48;;;;;;;5.25;1.27;;;;;;;24.19;100.00;100742.63;5015320;28;20038;-73
2023/08/16 09:34:34;;;;;;;3.17;1.20;;;;;;;24.30;100.00;100739.97;5030059;28;20045;-73
2023/08/16 09:37:20;;;;;;;3.65;1.35;;;;;;;24.44;100.00;100740.19;5021621;28;20465;-73
2023/08/16 09:40:07;;;;;;;2.03;0.90;;;;;;;24.58;100.00;100738.78;5009033;28;20120;-72
2023/08/16 09:42:57;;;;;;;2.38;0.75;;;;;;;24.70;100.00;100742.19;5008597;28;20063;-72
2023/08/16 09:45:46;;;;;;;4.78;1.00;;;;;;;24.83;100.00;100736.28;5011327;28;20041;-73
2023/08/16 09:48:32;;;;;;;3.90;1.00;;;;;;;24.96;100.00;100729.13;5022614;28;20044;-73
2023/08/16 09:51:18;;;;;;;2.53;0.93;;;;;;;25.06;100.00;100734.13;5035763;28;20100;-73
2023/08/16 09:54:14;;;;;;;3.92;1.13;;;;;;;25.24;100.00;100728.69;5008698;28;20457;-73
2023/08/16 09:56:59;;;;;;;5.75;1.35;;;;;;;25.38;100.00;100725.16;5015619;28;20083;-73
2023/08/16 09:59:45;;;;;;;2.70;0.90;;;;;;;25.55;100.00;100727.38;5007304;28;20037;-73
2023/08/16 10:02:31;;;;;;;2.80;0.90;;;;;;;25.63;100.00;100714.88;5023701;28;20049;-73
2023/08/16 10:05:17;;;;;;;2.00;0.73;;;;;;;25.71;100.00;100712.06;5003428;28;20116;-73
2023/08/16 10:08:05;;;;;;;1.90;0.73;;;;;;;25.65;100.00;100714.47;5034789;28;20116;-73
2023/08/16 10:10:53;;;;;;;3.65;0.98;;;;;;;25.78;100.00;100712.16;5010985;28;20061;-73
2023/08/16 10:13:40;;;;;;;2.72;0.82;;;;;;;25.84;100.00;100699.22;4997218;28;20481;-73
2023/08/16 10:16:26;;;;;;;2.42;1.05;;;;;;;25.91;100.00;100702.13;5022862;28;20053;-73
2023/08/16 10:19:15;;;;;;;2.75;0.80;;;;;;;25.94;100.00;100704.19;5004473;28;20482;-73
2023/08/16 10:22:00;;;;;;;3.13;1.20;;;;;;;26.00;100.00;100704.63;5035970;28;20034;-73
2023/08/16 10:24:46;;;;;;;3.33;1.10;;;;;;;26.04;100.00;100708.31;4992104;28;20038;-73
2023/08/16 10:27:32;;;;;;;2.20;0.90;;;;;;;26.14;100.00;100706.78;5020511;28;20037;-73
2023/08/16 10:30:24;;;;;;;4.53;1.40;;;;;;;26.20;100.00;100702.34;5008514;28;20121;-73
2023/08/16 10:33:33;;;;;;;5.07;1.27;;;;;;;26.18;100.00;100697.03;5022447;28;20041;-73
2023/08/16 10:36:18;;;;;;;3.28;1.05;;;;;;;26.14;99.92;100701.88;5020167;28;20120;-73
2023/08/16 10:39:04;;;;;;;2.85;1.05;;;;;;;26.20;100.00;100699.47;5013026;28;20038;-73
2023/08/16 10:41:51;;;;;;;3.22;1.08;;;;;;;26.33;100.00;100699.97;5012510;28;20037;-73
2023/08/16 10:44:38;;;;;;;3.00;1.23;;;;;;;26.43;100.00;100702.88;5026011;28;20398;-73
2023/08/16 10:47:30;;;;;;;3.65;1.00;;;;;;;26.59;100.00;100694.03;5015013;28;20116;-73
2023/08/16 10:50:15;;;;;;;3.28;1.13;;;;;;;26.58;100.00;100700.13;5026065;28;20030;-73
2023/08/16 10:53:01;;;;;;;4.22;1.00;;;;;;;26.62;98.29;100681.84;5038535;28;20494;-73
2023/08/16 10:55:55;;;;;;;2.90;1.05;;;;;;;26.63;98.20;100682.66;5024822;28;20094;-73
2023/08/16 10:58:51;;;;;;;2.45;1.10;;;;;;;26.61;97.72;100680.22;5023648;28;20033;-73
2023/08/16 11:01:53;;;;;;;3.90;1.30;;;;;;;26.61;94.08;100679.41;5038656;28;20034;-73
2023/08/16 11:04:40;;;;;;;2.15;0.93;;;;;;;26.72;98.93;100669.69;5026957;28;20047;-73
2023/08/16 11:07:25;;;;;;;3.65;1.20;;;;;;;26.77;98.73;100671.31;5037794;28;20042;-73
2023/08/16 11:10:11;;;;;;;3.25;1.05;;;;;;;26.77;100.00;100664.81;5018141;28;20030;-73
2023/08/16 11:12:59;;;;;;;2.90;1.00;;;;;;;26.91;100.00;100668.53;5035303;28;20033;-73
2023/08/16 11:15:45;;;;;;;3.72;1.00;;;;;;;27.05;100.00;100669.78;5006250;28;20513;-73
2023/08/16 11:18:32;;;;;;;4.95;1.00;;;;;;;27.17;95.99;100669.44;5007320;28;20029;-73
2023/08/16 11:21:17;;;;;;;2.88;1.05;;;;;;;27.29;99.58;100663.34;5011824;28;20124;-73
2023/08/16 11:24:05;;;;;;;2.88;1.30;;;;;;;27.42;96.09;100660.13;5007727;28;20037;-73
2023/08/16 11:26:53;;;;;;;4.10;1.15;;;;;;;27.57;94.67;100661.75;5012967;28;20037;-73
2023/08/16 11:29:38;;;;;;;4.00;1.30;;;;;;;27.69;92.91;100669.09;5000288;28;20037;-73
2023/08/16 11:32:37;;;;;;;4.45;1.25;;;;;;;27.70;92.35;100665.84;5025211;28;20064;-73
2023/08/16 11:35:26;;;;;;;3.15;1.10;;;;;;;27.70;90.11;100653.63;5037773;28;20124;-73
2023/08/16 11:38:14;;;;;;;3.78;1.15;;;;;;;27.75;91.93;100667.44;5025042;28;20033;-73
2023/08/16 11:41:01;;;;;;;2.90;1.00;;;;;;;27.87;92.02;100649.16;5014690;28;20025;-73
2023/08/16 11:44:01;;;;;;;3.33;1.02;;;;;;;27.90;91.41;100654.84;5021204;28;20089;-73
2023/08/16 11:46:47;;;;;;;3.70;1.05;;;;;;;27.96;89.46;100656.06;5024633;28;20029;-73
2023/08/16 11:49:33;;;;;;;2.75;0.90;;;;;;;27.90;91.24;100665.44;5006190;28;20092;-73
2023/08/16 11:52:22;;;;;;;1.73;0.63;;;;;;;27.81;89.12;100669.53;5025524;28;20045;-73
2023/08/16 11:55:09;;;;;;;3.05;1.00;;;;;;;27.66;86.83;100667.84;5024751;28;20061;-73
2023/08/16 11:58:00;;;;;;;2.55;0.90;;;;;;;27.71;86.38;100670.31;5024853;28;20101;-73
2023/08/16 12:00:46;;;;;;;2.05;0.82;;;;;;;27.76;88.03;100669.09;5021370;28;20079;-73
2023/08/16 12:03:33;;;;;;;2.58;1.10;;;;;;;27.73;91.96;100661.34;5033189;28;21151;-73
2023/08/16 12:06:21;;;;;;;3.92;1.10;;;;;;;27.76;92.58;100660.53;5009260;28;20087;-73
2023/08/16 12:09:06;;;;;;;2.30;0.90;;;;;;;27.79;96.06;100652.00;5011120;28;20045;-73
2023/08/16 12:11:53;;;;;;;2.25;0.98;;;;;;;27.79;93.30;100657.69;5022069;28;20040;-73
2023/08/16 12:14:38;;;;;;;1.85;0.80;;;;;;;27.88;88.76;100653.63;5038453;28;20112;-73
2023/08/16 12:17:24;;;;;;;4.75;1.20;;;;;;;27.91;83.53;100653.59;5023269;28;20049;-73
2023/08/16 12:20:11;;;;;;;2.80;1.02;;;;;;;28.09;86.44;100652.78;5023222;28;20037;-73
2023/08/16 12:22:58;;;;;;;4.10;1.08;;;;;;;28.18;90.44;100656.84;5002057;28;20117;-73
2023/08/16 12:25:44;;;;;;;4.53;1.10;;;;;;;28.34;87.55;100662.09;5024870;28;20120;-73
2023/08/16 12:28:30;;;;;;;2.65;1.02;;;;;;;28.53;84.19;100658.00;5020499;28;20482;-73
2023/08/16 12:31:15;;;;;;;3.55;0.90;;;;;;;28.68;87.34;100656.69;5021017;28;20041;-73
2023/08/16 12:34:01;;;;;;;2.38;0.80;;;;;;;28.86;82.58;100655.78;5036839;28;20037;-73
2023/08/16 12:36:47;;;;;;;2.92;1.02;;;;;;;29.02;82.58;100658.16;5002983;28;20136;-73
2023/08/16 12:39:33;;;;;;;2.50;0.90;;;;;;;29.25;84.43;100664.16;5023626;28;20061;-73
2023/08/16 12:42:19;;;;;;;3.08;0.60;;;;;;;29.32;77.68;100669.03;5005769;28;20116;-73
2023/08/16 12:45:05;;;;;;;2.92;1.00;;;;;;;29.47;78.74;100667.69;5008864;28;20116;-73
2023/08/16 12:47:50;;;;;;;2.83;0.88;;;;;;;29.46;76.76;100671.78;5008833;28;20037;-73